createdAt,value
2023-01-12T00:00:00.144Z,92
2023-01-12T00:05:00.145Z,92
2023-01-12T00:10:00.132Z,92
2023-01-12T00:15:00.157Z,91.8
2023-01-12T00:20:00.167Z,91.7
2023-01-12T00:25:00.111Z,91.6
2023-01-12T00:30:00.112Z,91.6
2023-01-12T00:35:00.156Z,91.7
2023-01-12T00:40:02.719Z,91.9
2023-01-12T00:45:00.118Z,91.9
2023-01-12T00:50:00.102Z,91.7
2023-01-12T00:55:00.317Z,91.4
2023-01-12T01:00:00.499Z,91.2
2023-01-12T01:05:00.144Z,91.1
2023-01-12T01:10:00.151Z,91
2023-01-12T01:15:00.127Z,90.8
2023-01-12T01:20:00.107Z,90.6
2023-01-12T01:25:00.132Z,90.4
2023-01-12T01:30:00.116Z,90.3
2023-01-12T01:35:00.145Z,90.3
2023-01-12T01:40:00.125Z,90.4
2023-01-12T01:45:00.118Z,90.6
2023-01-12T01:50:00.166Z,90.8
2023-01-12T01:55:00.131Z,90.8
2023-01-12T02:00:00.174Z,90.8
2023-01-12T02:05:00.115Z,90.8
2023-01-12T02:10:00.110Z,90.8
2023-01-12T02:15:00.171Z,90.7
2023-01-12T02:20:00.176Z,90.6
2023-01-12T02:25:00.119Z,90.4
2023-01-12T02:30:00.158Z,90.4
2023-01-12T02:35:00.124Z,90.1
2023-01-12T02:40:00.141Z,90
2023-01-12T02:45:00.104Z,89.9
2023-01-12T02:50:00.123Z,89.5
2023-01-12T02:55:00.161Z,88.5
2023-01-12T03:00:00.206Z,88.1
2023-01-12T03:05:00.102Z,87.6
2023-01-12T03:10:00.119Z,87.2
2023-01-12T03:15:00.164Z,86.5
2023-01-12T03:20:00.121Z,86.3
2023-01-12T03:25:00.156Z,85.5
2023-01-12T03:30:00.183Z,85.2
2023-01-12T03:35:00.169Z,85.4
2023-01-12T03:40:00.131Z,85.5
2023-01-12T03:45:00.136Z,85.3
2023-01-12T03:50:00.142Z,85.4
2023-01-12T03:55:00.135Z,85.2
2023-01-12T04:00:00.171Z,85.3
2023-01-12T04:05:00.160Z,85.2
2023-01-12T04:10:00.145Z,85.2
2023-01-12T04:15:00.148Z,85.3
2023-01-12T04:20:00.144Z,85.4
2023-01-12T04:25:00.125Z,85.4
2023-01-12T04:30:00.158Z,85.6
2023-01-12T04:35:00.155Z,85.7
2023-01-12T04:40:00.095Z,85.8
2023-01-12T04:45:00.170Z,86
2023-01-12T04:50:00.121Z,86
2023-01-12T04:55:00.119Z,86.1
2023-01-12T05:00:00.116Z,86.1
2023-01-12T05:05:00.107Z,86
2023-01-12T05:10:00.153Z,86.2
2023-01-12T05:15:00.144Z,86
2023-01-12T05:20:00.959Z,85.7
2023-01-12T05:25:00.153Z,86
2023-01-12T05:30:00.112Z,85.9
2023-01-12T05:35:00.182Z,85.9
2023-01-12T05:40:00.096Z,85.6
2023-01-12T05:45:00.123Z,85.7
2023-01-12T05:50:00.093Z,85.3
2023-01-12T05:55:00.176Z,84.9
2023-01-12T06:00:00.158Z,85
2023-01-12T06:05:00.182Z,84.9
2023-01-12T06:10:00.112Z,85
2023-01-12T06:15:00.192Z,84.6
2023-01-12T06:20:00.135Z,84.2
2023-01-12T06:25:00.108Z,85
2023-01-12T06:30:00.120Z,85
2023-01-12T06:35:06.925Z,85.3
2023-01-12T06:40:00.131Z,85.5
2023-01-12T06:45:00.105Z,85.5
2023-01-12T06:50:00.133Z,85.6
2023-01-12T06:55:00.167Z,85.7
2023-01-12T07:00:00.123Z,85.7
2023-01-12T07:05:00.093Z,85.8
2023-01-12T07:10:00.104Z,85.9
2023-01-12T07:15:00.168Z,86
2023-01-12T07:20:00.123Z,86
2023-01-12T07:25:00.135Z,85.9
2023-01-12T07:30:00.118Z,85.8
2023-01-12T07:35:00.152Z,85.5
2023-01-12T07:40:00.138Z,85.1
2023-01-12T07:45:00.110Z,85
2023-01-12T07:50:00.122Z,85.1
2023-01-12T07:55:00.158Z,85.2
2023-01-12T08:00:00.151Z,84.9
2023-01-12T08:05:00.129Z,84.9
2023-01-12T08:10:00.112Z,84.7
2023-01-12T08:15:00.126Z,84.5
2023-01-12T08:20:00.118Z,84.7
2023-01-12T08:25:00.138Z,84.7
2023-01-12T08:30:00.151Z,84.7
2023-01-12T08:35:01.318Z,84.6
2023-01-12T08:40:00.109Z,84.6
2023-01-12T08:45:00.133Z,84.4
2023-01-12T08:50:00.111Z,83.8
2023-01-12T08:55:00.230Z,83.7
2023-01-12T09:00:00.130Z,83.6
2023-01-12T09:05:00.127Z,83
2023-01-12T09:10:00.144Z,83
2023-01-12T09:15:00.154Z,82.7
2023-01-12T09:20:00.157Z,82.3
2023-01-12T09:25:00.136Z,82.4
2023-01-12T09:30:00.092Z,82.1
2023-01-12T09:35:00.189Z,81.9
2023-01-12T09:40:00.098Z,81.8
2023-01-12T09:45:00.115Z,81.6
2023-01-12T09:50:08.607Z,81.1
2023-01-12T09:55:00.144Z,80.8
2023-01-12T10:00:00.191Z,80.9
2023-01-12T10:05:00.138Z,80.9
2023-01-12T10:10:00.133Z,80.9
2023-01-12T10:15:00.126Z,80.7
2023-01-12T10:20:00.176Z,80.5
2023-01-12T10:25:00.142Z,80.5
2023-01-12T10:30:00.123Z,79.8
2023-01-12T10:35:00.152Z,79.9
2023-01-12T10:40:00.238Z,80.2
2023-01-12T10:45:00.139Z,80.1
2023-01-12T10:50:00.111Z,80.4
2023-01-12T10:55:00.153Z,80.1
2023-01-12T11:00:00.181Z,79.9
2023-01-12T11:05:00.137Z,79.7
2023-01-12T11:10:00.155Z,79.8
2023-01-12T11:15:00.158Z,79.4
2023-01-12T11:20:00.127Z,79.2
2023-01-12T11:25:00.106Z,79.3
2023-01-12T11:30:00.161Z,79.5
2023-01-12T11:35:00.146Z,79.9
2023-01-12T11:40:00.126Z,80.6
2023-01-12T11:45:00.145Z,80.9
2023-01-12T11:50:00.151Z,81
2023-01-12T11:55:00.148Z,81.1
2023-01-12T12:00:00.131Z,81.3
2023-01-12T12:05:00.103Z,80.8
2023-01-12T12:10:00.141Z,81.4
2023-01-12T12:15:00.132Z,81.6
2023-01-12T12:20:00.144Z,82.6
2023-01-12T12:25:00.152Z,84.3
2023-01-12T12:30:00.129Z,85.4
2023-01-12T12:35:00.149Z,86
2023-01-12T12:40:00.142Z,85.9
2023-01-12T12:45:00.095Z,85.7
2023-01-12T12:50:00.138Z,85.5
2023-01-12T12:55:00.125Z,85.4
2023-01-12T13:00:00.237Z,85.5
2023-01-12T13:05:00.134Z,85.5
2023-01-12T13:10:00.156Z,85
2023-01-12T13:15:00.140Z,85.2
2023-01-12T13:20:01.420Z,85.6
2023-01-12T13:25:00.141Z,85.7
2023-01-12T13:30:00.120Z,85.3
2023-01-12T13:35:00.157Z,85.2
2023-01-12T13:40:00.168Z,85.1
2023-01-12T13:45:00.099Z,84.8
2023-01-12T13:50:00.150Z,84.5
2023-01-12T13:55:00.150Z,84.4
2023-01-12T14:00:00.137Z,84.2
2023-01-12T14:05:00.157Z,84.3
2023-01-12T14:10:00.156Z,84.3
2023-01-12T14:15:00.140Z,84.3
2023-01-12T14:20:00.120Z,84.3
2023-01-12T14:25:00.190Z,84.1
2023-01-12T14:30:00.176Z,83.6
2023-01-12T14:35:00.193Z,83.7
2023-01-12T14:40:00.168Z,83.3
2023-01-12T14:45:00.143Z,83.6
2023-01-12T14:50:00.163Z,83.8
2023-01-12T14:55:00.207Z,83.7
2023-01-12T15:00:00.122Z,83.7
2023-01-12T15:05:00.111Z,83.8
2023-01-12T15:10:00.116Z,83.9
2023-01-12T15:15:00.145Z,84
2023-01-12T15:20:00.123Z,84.1
2023-01-12T15:25:00.146Z,84.2
2023-01-12T15:30:00.175Z,84.4
2023-01-12T15:35:00.209Z,84.4
2023-01-12T15:40:00.114Z,84.5
2023-01-12T15:45:00.128Z,84.6
2023-01-12T15:50:00.117Z,84.8
2023-01-12T15:55:00.161Z,84.8
2023-01-12T16:00:00.171Z,84.9
2023-01-12T16:05:00.169Z,84.8
2023-01-12T16:10:00.159Z,84.7
2023-01-12T16:15:00.147Z,84.7
2023-01-12T16:20:00.170Z,84.7
2023-01-12T16:25:01.114Z,84.7
2023-01-12T16:30:00.184Z,84.8
2023-01-12T16:35:00.171Z,85
2023-01-12T16:40:00.245Z,85
2023-01-12T16:45:00.155Z,84.9
2023-01-12T16:50:00.268Z,84.9
2023-01-12T16:55:00.127Z,84.9
2023-01-12T17:00:00.241Z,84.9
2023-01-12T17:05:00.105Z,85
2023-01-12T17:10:00.165Z,85.1
2023-01-12T17:15:00.166Z,85.1
2023-01-12T17:20:00.139Z,85.1
2023-01-12T17:25:00.112Z,85
2023-01-12T17:30:00.182Z,84.4
2023-01-12T17:35:00.131Z,85.1
2023-01-12T17:40:00.141Z,85.2
2023-01-12T17:45:00.146Z,85.5
2023-01-12T17:50:00.138Z,84.8
2023-01-12T17:55:00.141Z,86
2023-01-12T18:00:00.278Z,86.2
2023-01-12T18:05:00.109Z,86.3
2023-01-12T18:10:00.157Z,86.3
2023-01-12T18:15:00.137Z,86.4
2023-01-12T18:20:00.138Z,86.6
2023-01-12T18:25:00.097Z,86.6
2023-01-12T18:30:00.179Z,86.5
2023-01-12T18:35:00.137Z,86
2023-01-12T18:40:00.112Z,86.4
2023-01-12T18:45:00.138Z,86.3
2023-01-12T18:50:00.161Z,86.3
2023-01-12T18:55:00.159Z,86.3
2023-01-12T19:00:00.219Z,86.1
2023-01-12T19:05:00.088Z,86.2
2023-01-12T19:10:00.193Z,86.3
2023-01-12T19:15:00.158Z,86.3
2023-01-12T19:20:00.176Z,86.5
2023-01-12T19:25:00.130Z,86.7
2023-01-12T19:30:00.181Z,86.9
2023-01-12T19:35:10.066Z,87
2023-01-12T19:40:01.102Z,87.2
2023-01-12T19:45:00.139Z,87.3
2023-01-12T19:50:00.167Z,87.3
2023-01-12T19:55:00.149Z,87.4
2023-01-12T20:00:00.171Z,87.5
2023-01-12T20:05:00.107Z,87.5
2023-01-12T20:10:00.138Z,87.6
2023-01-12T20:15:00.145Z,87.6
2023-01-12T20:20:00.132Z,87.6
2023-01-12T20:25:00.126Z,86.7
2023-01-12T20:30:00.132Z,87.4
2023-01-12T20:35:00.149Z,87.3
2023-01-12T20:40:00.137Z,87.2
2023-01-12T20:45:00.153Z,87.3
2023-01-12T20:50:00.146Z,87.4
2023-01-12T20:55:00.146Z,87.3
2023-01-12T21:00:00.139Z,87.3
2023-01-12T21:05:00.105Z,86.8
2023-01-12T21:10:00.104Z,87.4
2023-01-12T21:15:00.159Z,87.3
2023-01-12T21:20:00.157Z,86.3
2023-01-12T21:25:00.103Z,86.8
2023-01-12T21:30:00.180Z,86.4
2023-01-12T21:35:00.167Z,86.3
2023-01-12T21:40:00.171Z,85.8
2023-01-12T21:45:00.115Z,85.7
2023-01-12T21:50:00.145Z,85.4
2023-01-12T21:55:00.212Z,85.2
2023-01-12T22:00:00.141Z,85
2023-01-12T22:05:00.156Z,84.8
2023-01-12T22:10:00.176Z,84.6
2023-01-12T22:15:00.164Z,84.5
2023-01-12T22:20:00.131Z,84.3
2023-01-12T22:25:00.174Z,84.4
2023-01-12T22:30:00.181Z,83.7
2023-01-12T22:35:00.150Z,84.3
2023-01-12T22:40:00.120Z,84.3
2023-01-12T22:45:00.168Z,84.3
2023-01-12T22:50:00.124Z,83.4
2023-01-12T22:55:00.172Z,84.2
2023-01-12T23:00:00.181Z,84.1
2023-01-12T23:05:00.095Z,84.2
2023-01-12T23:10:00.139Z,84.3
2023-01-12T23:15:00.150Z,84.4
2023-01-12T23:20:00.122Z,84.5
2023-01-12T23:25:00.111Z,84.6
2023-01-12T23:30:00.120Z,84.5
2023-01-12T23:35:00.148Z,84.5
2023-01-12T23:40:00.128Z,84.5
2023-01-12T23:45:00.188Z,84.5
2023-01-12T23:50:00.161Z,84.5
2023-01-12T23:55:00.140Z,84.4
